createdAt,value
2019-01-14T00:00:17.036Z,0
2019-01-14T00:01:16.793Z,0
2019-01-14T00:02:16.798Z,0
2019-01-14T00:03:16.561Z,0
2019-01-14T00:04:17.115Z,0
2019-01-14T00:05:16.671Z,0
2019-01-14T00:06:19.371Z,0
2019-01-14T00:07:17.149Z,0
2019-01-14T00:08:17.441Z,0
2019-01-14T00:09:23.000Z,0
2019-01-14T00:10:16.952Z,0
2019-01-14T00:11:17.229Z,0
2019-01-14T00:12:16.993Z,0
2019-01-14T00:13:17.323Z,0
2019-01-14T00:14:17.287Z,0
2019-01-14T00:15:16.776Z,0
2019-01-14T00:16:17.584Z,0
2019-01-14T00:17:17.105Z,0
2019-01-14T00:18:17.352Z,0
2019-01-14T00:19:17.652Z,0
2019-01-14T00:20:17.661Z,0
2019-01-14T00:21:17.673Z,0
2019-01-14T00:22:17.429Z,0
2019-01-14T00:23:17.587Z,0
2019-01-14T00:24:17.196Z,0
2019-01-14T00:25:17.214Z,0
2019-01-14T00:26:17.723Z,0
2019-01-14T00:27:17.527Z,0
2019-01-14T00:28:17.270Z,0
2019-01-14T00:29:17.290Z,0
2019-01-14T00:30:17.062Z,0
2019-01-14T00:31:17.591Z,0
2019-01-14T00:32:17.617Z,0
2019-01-14T00:33:17.106Z,0
2019-01-14T00:34:17.133Z,0
2019-01-14T00:35:17.675Z,0
2019-01-14T00:36:24.302Z,0
2019-01-14T00:37:17.699Z,0
2019-01-14T00:38:17.984Z,0
2019-01-14T00:39:17.741Z,0
2019-01-14T00:40:17.756Z,0
2019-01-14T00:41:18.293Z,0
2019-01-14T00:42:17.782Z,0
2019-01-14T00:43:17.543Z,0
2019-01-14T00:44:17.820Z,0
2019-01-14T00:45:17.832Z,0
2019-01-14T00:46:17.349Z,0
2019-01-14T00:47:17.886Z,0
2019-01-14T00:48:17.656Z,0
2019-01-14T00:49:17.918Z,0
2019-01-14T00:50:17.680Z,0
2019-01-14T00:51:17.962Z,0
2019-01-14T00:52:17.456Z,0
2019-01-14T00:53:17.743Z,0
2019-01-14T00:54:18.269Z,0
2019-01-14T00:55:18.023Z,0
2019-01-14T00:56:18.116Z,0
2019-01-14T00:57:17.800Z,0
2019-01-14T00:58:18.079Z,0
2019-01-14T00:59:18.144Z,0
2019-01-14T01:00:18.127Z,0
2019-01-14T01:01:17.893Z,0
2019-01-14T01:02:17.901Z,0
2019-01-14T01:03:17.660Z,0
2019-01-14T01:04:18.434Z,0
2019-01-14T01:05:17.705Z,0
2019-01-14T01:06:24.423Z,0
2019-01-14T01:07:18.251Z,0
2019-01-14T01:08:18.297Z,0
2019-01-14T01:09:17.772Z,0
2019-01-14T01:10:18.300Z,0
2019-01-14T01:11:18.567Z,0
2019-01-14T01:12:18.068Z,0
2019-01-14T01:13:18.614Z,0
2019-01-14T01:14:17.858Z,0
2019-01-14T01:15:18.650Z,0
2019-01-14T01:16:18.150Z,0
2019-01-14T01:17:18.173Z,0
2019-01-14T01:18:18.694Z,0
2019-01-14T01:19:17.930Z,0
2019-01-14T01:20:18.479Z,0
2019-01-14T01:21:19.011Z,0
2019-01-14T01:22:18.512Z,0
2019-01-14T01:23:18.531Z,0
2019-01-14T01:24:18.797Z,0
2019-01-14T01:25:18.838Z,0
2019-01-14T01:26:18.329Z,0
2019-01-14T01:27:18.081Z,0
2019-01-14T01:28:18.356Z,0
2019-01-14T01:29:18.394Z,0
2019-01-14T01:30:18.415Z,0
2019-01-14T01:31:18.429Z,0
2019-01-14T01:32:18.436Z,0
2019-01-14T01:33:18.470Z,0
2019-01-14T01:34:18.474Z,0
2019-01-14T01:35:18.241Z,0
2019-01-14T01:36:18.842Z,0
2019-01-14T01:37:19.990Z,0
2019-01-14T01:38:18.801Z,0
2019-01-14T01:39:19.120Z,0
2019-01-14T01:40:18.827Z,0
2019-01-14T01:41:18.860Z,0
2019-01-14T01:42:18.890Z,0
2019-01-14T01:43:19.168Z,0
2019-01-14T01:44:18.414Z,0
2019-01-14T01:45:20.391Z,0
2019-01-14T01:46:18.425Z,0
2019-01-14T01:47:18.984Z,0
2019-01-14T01:48:18.466Z,0
2019-01-14T01:49:18.806Z,0
2019-01-14T01:50:19.289Z,0
2019-01-14T01:51:18.779Z,0
2019-01-14T01:52:19.054Z,0
2019-01-14T01:53:18.565Z,0
2019-01-14T01:54:19.106Z,0
2019-01-14T01:55:19.121Z,0
2019-01-14T01:56:18.881Z,0
2019-01-14T01:57:19.631Z,0
2019-01-14T01:58:19.177Z,0
2019-01-14T01:59:18.931Z,0
2019-01-14T02:00:18.959Z,0
2019-01-14T02:01:19.225Z,0
2019-01-14T02:02:19.248Z,0
2019-01-14T02:03:19.008Z,0
2019-01-14T02:04:19.549Z,0
2019-01-14T02:05:19.303Z,0
2019-01-14T02:06:19.055Z,0
2019-01-14T02:07:19.598Z,0
2019-01-14T02:08:19.082Z,0
2019-01-14T02:09:19.372Z,0
2019-01-14T02:10:19.375Z,0
2019-01-14T02:11:18.893Z,0
2019-01-14T02:12:19.420Z,0
2019-01-14T02:13:19.432Z,0
2019-01-14T02:14:19.458Z,0
2019-01-14T02:15:19.997Z,0
2019-01-14T02:16:19.494Z,0
2019-01-14T02:17:19.268Z,0
2019-01-14T02:18:19.520Z,0
2019-01-14T02:19:19.295Z,0
2019-01-14T02:20:19.561Z,0
2019-01-14T02:21:19.845Z,0
2019-01-14T02:22:19.077Z,0
2019-01-14T02:23:19.366Z,0
2019-01-14T02:24:19.384Z,0
2019-01-14T02:25:19.392Z,0
2019-01-14T02:26:19.409Z,0
2019-01-14T02:27:19.425Z,0
2019-01-14T02:28:19.194Z,0
2019-01-14T02:29:20.248Z,0
2019-01-14T02:30:19.507Z,0
2019-01-14T02:31:19.521Z,0
2019-01-14T02:32:19.801Z,0
2019-01-14T02:33:19.301Z,0
2019-01-14T02:34:20.093Z,0
2019-01-14T02:35:19.575Z,0
2019-01-14T02:36:19.844Z,0
2019-01-14T02:37:20.141Z,0
2019-01-14T02:38:19.373Z,0
2019-01-14T02:39:19.913Z,0
2019-01-14T02:40:19.949Z,0
2019-01-14T02:41:19.957Z,0
2019-01-14T02:42:19.700Z,0
2019-01-14T02:43:19.734Z,0
2019-01-14T02:44:19.789Z,0
2019-01-14T02:45:19.616Z,0
2019-01-14T02:46:20.099Z,0
2019-01-14T02:47:19.523Z,0
2019-01-14T02:48:19.840Z,0
2019-01-14T02:49:20.340Z,0
2019-01-14T02:50:20.192Z,0
2019-01-14T02:51:20.130Z,0
2019-01-14T02:52:20.170Z,0
2019-01-14T02:53:19.899Z,0
2019-01-14T02:54:20.173Z,0
2019-01-14T02:55:19.685Z,0
2019-01-14T02:56:20.457Z,0
2019-01-14T02:57:20.239Z,0
2019-01-14T02:58:20.256Z,0
2019-01-14T02:59:20.274Z,0
2019-01-14T03:00:20.540Z,0
2019-01-14T03:01:20.294Z,0
2019-01-14T03:02:20.594Z,0
2019-01-14T03:03:20.858Z,0
2019-01-14T03:04:20.358Z,0
2019-01-14T03:05:20.631Z,0
2019-01-14T03:06:20.405Z,0
2019-01-14T03:07:20.172Z,0
2019-01-14T03:08:20.449Z,0
2019-01-14T03:09:19.926Z,0
2019-01-14T03:10:20.731Z,0
2019-01-14T03:11:20.229Z,0
2019-01-14T03:12:20.261Z,0
2019-01-14T03:13:21.036Z,0
2019-01-14T03:14:20.280Z,0
2019-01-14T03:15:20.037Z,0
2019-01-14T03:16:20.047Z,0
2019-01-14T03:17:20.326Z,0
2019-01-14T03:18:20.405Z,0
2019-01-14T03:19:21.042Z,0
2019-01-14T03:20:20.632Z,0
2019-01-14T03:21:20.400Z,0
2019-01-14T03:22:20.438Z,0
2019-01-14T03:23:20.435Z,0
2019-01-14T03:24:20.466Z,0
2019-01-14T03:25:21.016Z,0
2019-01-14T03:26:20.514Z,0
2019-01-14T03:27:21.293Z,0
2019-01-14T03:28:20.269Z,0
2019-01-14T03:29:20.562Z,0
2019-01-14T03:30:21.223Z,0
2019-01-14T03:31:21.145Z,0
2019-01-14T03:32:21.165Z,0
2019-01-14T03:33:20.913Z,0
2019-01-14T03:34:20.907Z,0
2019-01-14T03:35:20.641Z,0
2019-01-14T03:36:20.948Z,0
2019-01-14T03:37:20.427Z,0
2019-01-14T03:38:20.689Z,0
2019-01-14T03:39:21.233Z,0
2019-01-14T03:40:21.007Z,0
2019-01-14T03:41:21.013Z,0
2019-01-14T03:42:21.316Z,0
2019-01-14T03:43:21.361Z,0
2019-01-14T03:44:21.060Z,0
2019-01-14T03:45:21.102Z,0
2019-01-14T03:46:20.583Z,0
2019-01-14T03:47:20.874Z,0
2019-01-14T03:48:21.481Z,0
2019-01-14T03:49:21.424Z,0
2019-01-14T03:50:20.707Z,0
2019-01-14T03:51:21.787Z,0
2019-01-14T03:52:21.214Z,0
2019-01-14T03:53:21.224Z,0
2019-01-14T03:54:21.519Z,0
2019-01-14T03:55:21.254Z,0
2019-01-14T03:56:21.023Z,0
2019-01-14T03:57:21.056Z,0
2019-01-14T03:58:21.056Z,0
2019-01-14T03:59:21.593Z,0
2019-01-14T04:00:21.604Z,0
2019-01-14T04:01:21.381Z,0
2019-01-14T04:02:21.139Z,0
2019-01-14T04:03:21.661Z,0
2019-01-14T04:04:21.680Z,0
2019-01-14T04:05:21.456Z,0
2019-01-14T04:06:21.470Z,0
2019-01-14T04:07:23.384Z,0
2019-01-14T04:08:21.242Z,0
2019-01-14T04:09:22.186Z,0
2019-01-14T04:10:21.815Z,0
2019-01-14T04:11:21.032Z,0
2019-01-14T04:12:21.846Z,0
2019-01-14T04:13:21.324Z,0
2019-01-14T04:14:21.343Z,0
2019-01-14T04:15:21.647Z,0
2019-01-14T04:16:21.378Z,0
2019-01-14T04:17:21.392Z,0
2019-01-14T04:18:21.165Z,0
2019-01-14T04:19:21.965Z,0
2019-01-14T04:20:21.444Z,0
2019-01-14T04:21:21.732Z,0
2019-01-14T04:22:21.751Z,0
2019-01-14T04:23:21.532Z,0
2019-01-14T04:24:21.265Z,0
2019-01-14T04:25:21.863Z,0
2019-01-14T04:26:21.797Z,0
2019-01-14T04:27:21.595Z,0
2019-01-14T04:28:21.589Z,0
2019-01-14T04:29:21.618Z,0
2019-01-14T04:30:21.642Z,0
2019-01-14T04:31:22.765Z,0
2019-01-14T04:32:21.667Z,0
2019-01-14T04:33:21.941Z,0
2019-01-14T04:34:21.695Z,0
2019-01-14T04:35:21.727Z,0
2019-01-14T04:36:21.998Z,0
2019-01-14T04:37:28.074Z,0
2019-01-14T04:38:21.496Z,0
2019-01-14T04:39:21.992Z,0
2019-01-14T04:40:21.910Z,0
2019-01-14T04:41:22.079Z,0
2019-01-14T04:42:22.101Z,0
2019-01-14T04:43:22.369Z,0
2019-01-14T04:44:22.146Z,0
2019-01-14T04:45:22.722Z,0
2019-01-14T04:46:22.167Z,0
2019-01-14T04:47:22.180Z,0
2019-01-14T04:48:22.725Z,0
2019-01-14T04:49:22.036Z,0
2019-01-14T04:50:22.496Z,0
2019-01-14T04:51:22.267Z,0
2019-01-14T04:52:22.280Z,0
2019-01-14T04:53:22.281Z,0
2019-01-14T04:54:22.302Z,0
2019-01-14T04:55:22.073Z,0
2019-01-14T04:56:22.613Z,0
2019-01-14T04:57:22.108Z,0
2019-01-14T04:58:22.108Z,0
2019-01-14T04:59:22.161Z,0
2019-01-14T05:00:22.408Z,0
2019-01-14T05:01:22.429Z,0
2019-01-14T05:02:22.446Z,0
2019-01-14T05:03:21.989Z,0
2019-01-14T05:04:22.479Z,0
2019-01-14T05:05:22.063Z,0
2019-01-14T05:06:22.512Z,0
2019-01-14T05:07:29.282Z,0
2019-01-14T05:08:22.817Z,0
2019-01-14T05:09:22.566Z,0
2019-01-14T05:10:22.081Z,0
2019-01-14T05:11:22.621Z,0
2019-01-14T05:12:22.629Z,0
2019-01-14T05:13:22.377Z,0
2019-01-14T05:14:22.128Z,0
2019-01-14T05:15:22.684Z,0
2019-01-14T05:16:22.456Z,0
2019-01-14T05:17:22.715Z,0
2019-01-14T05:18:22.203Z,0
2019-01-14T05:19:22.795Z,0
2019-01-14T05:20:22.777Z,0
2019-01-14T05:21:23.056Z,0
2019-01-14T05:22:23.043Z,0
2019-01-14T05:23:22.544Z,0
2019-01-14T05:24:22.589Z,0
2019-01-14T05:25:22.839Z,0
2019-01-14T05:26:22.634Z,0
2019-01-14T05:27:22.360Z,0
2019-01-14T05:28:22.916Z,0
2019-01-14T05:29:23.186Z,0
2019-01-14T05:30:22.674Z,0
2019-01-14T05:31:22.445Z,0
2019-01-14T05:32:22.998Z,0
2019-01-14T05:33:22.737Z,0
2019-01-14T05:34:23.008Z,0
2019-01-14T05:35:23.291Z,0
2019-01-14T05:36:23.039Z,0
2019-01-14T05:37:23.070Z,0
2019-01-14T05:38:23.076Z,0
2019-01-14T05:39:22.890Z,0
2019-01-14T05:40:23.113Z,0
2019-01-14T05:41:23.149Z,0
2019-01-14T05:42:23.164Z,0
2019-01-14T05:43:23.186Z,0
2019-01-14T05:44:22.951Z,0
2019-01-14T05:45:22.935Z,0
2019-01-14T05:46:23.500Z,0
2019-01-14T05:47:22.716Z,0
2019-01-14T05:48:22.734Z,0
2019-01-14T05:49:23.295Z,0
2019-01-14T05:50:23.577Z,0
2019-01-14T05:51:23.292Z,0
2019-01-14T05:52:23.068Z,0
2019-01-14T05:53:23.605Z,0
2019-01-14T05:54:23.606Z,0
2019-01-14T05:55:23.635Z,0
2019-01-14T05:56:23.135Z,0
2019-01-14T05:57:23.151Z,0
2019-01-14T05:58:23.425Z,0
2019-01-14T05:59:23.184Z,0
2019-01-14T06:00:24.944Z,0
2019-01-14T06:01:23.485Z,0
2019-01-14T06:02:23.500Z,0
2019-01-14T06:03:24.028Z,0
2019-01-14T06:04:23.789Z,0
2019-01-14T06:05:23.305Z,0
2019-01-14T06:06:23.556Z,0
2019-01-14T06:07:23.850Z,0
2019-01-14T06:08:24.768Z,0
2019-01-14T06:09:23.363Z,0
2019-01-14T06:10:23.376Z,0
2019-01-14T06:11:23.421Z,0
2019-01-14T06:12:23.167Z,0
2019-01-14T06:13:23.182Z,0
2019-01-14T06:14:23.708Z,0
2019-01-14T06:15:23.741Z,0
2019-01-14T06:16:25.271Z,0
2019-01-14T06:17:23.514Z,0
2019-01-14T06:18:23.773Z,0
2019-01-14T06:19:24.050Z,0
2019-01-14T06:20:23.824Z,0
2019-01-14T06:21:24.100Z,0
2019-01-14T06:22:24.103Z,0
2019-01-14T06:23:23.333Z,0
2019-01-14T06:24:23.889Z,0
2019-01-14T06:25:24.218Z,0
2019-01-14T06:26:23.422Z,0
2019-01-14T06:27:23.951Z,0
2019-01-14T06:28:23.685Z,0
2019-01-14T06:29:23.713Z,0
2019-01-14T06:30:23.973Z,0
2019-01-14T06:31:24.308Z,0
2019-01-14T06:32:23.754Z,0
2019-01-14T06:33:23.530Z,0
2019-01-14T06:34:24.570Z,0
2019-01-14T06:35:23.882Z,0
2019-01-14T06:36:24.089Z,0
2019-01-14T06:37:24.362Z,0
2019-01-14T06:38:23.856Z,0
2019-01-14T06:39:24.126Z,0
2019-01-14T06:40:23.910Z,0
2019-01-14T06:41:23.642Z,0
2019-01-14T06:42:23.929Z,0
2019-01-14T06:43:23.965Z,0
2019-01-14T06:44:23.968Z,0
2019-01-14T06:45:24.238Z,0
2019-01-14T06:46:24.245Z,0
2019-01-14T06:47:24.013Z,0
2019-01-14T06:48:24.292Z,0
2019-01-14T06:49:24.580Z,0
2019-01-14T06:50:24.326Z,0
2019-01-14T06:51:24.384Z,0
2019-01-14T06:52:24.093Z,0
2019-01-14T06:53:24.396Z,0
2019-01-14T06:54:24.659Z,0
2019-01-14T06:55:24.431Z,0
2019-01-14T06:56:23.927Z,0
2019-01-14T06:57:24.180Z,0
2019-01-14T06:58:24.218Z,0
2019-01-14T06:59:24.250Z,0
2019-01-14T07:00:23.991Z,0
2019-01-14T07:01:24.009Z,0
2019-01-14T07:02:24.334Z,0
2019-01-14T07:03:24.033Z,0
2019-01-14T07:04:24.049Z,0
2019-01-14T07:05:24.574Z,0
2019-01-14T07:06:24.689Z,0
2019-01-14T07:07:24.886Z,0
2019-01-14T07:08:24.117Z,0
2019-01-14T07:09:24.388Z,0
2019-01-14T07:10:24.674Z,0
2019-01-14T07:11:24.943Z,0
2019-01-14T07:12:24.957Z,0
2019-01-14T07:13:24.718Z,0
2019-01-14T07:14:25.078Z,0
2019-01-14T07:15:24.765Z,0
2019-01-14T07:16:24.782Z,0
2019-01-14T07:17:25.062Z,0
2019-01-14T07:18:24.812Z,0
2019-01-14T07:19:24.838Z,0
2019-01-14T07:20:24.605Z,0
2019-01-14T07:21:24.867Z,0
2019-01-14T07:22:24.891Z,0
2019-01-14T07:23:24.385Z,0
2019-01-14T07:24:24.385Z,0
2019-01-14T07:25:25.206Z,0
2019-01-14T07:26:24.691Z,0
2019-01-14T07:27:25.213Z,0
2019-01-14T07:28:24.751Z,0
2019-01-14T07:29:25.255Z,0
2019-01-14T07:30:24.507Z,0
2019-01-14T07:31:25.030Z,0
2019-01-14T07:32:24.794Z,0
2019-01-14T07:33:24.873Z,0
2019-01-14T07:34:25.085Z,0
2019-01-14T07:35:24.859Z,0
2019-01-14T07:36:25.373Z,0
2019-01-14T07:37:25.674Z,0
2019-01-14T07:38:24.887Z,0
2019-01-14T07:39:25.179Z,0
2019-01-14T07:40:24.952Z,0
2019-01-14T07:41:24.940Z,0
2019-01-14T07:42:24.969Z,0
2019-01-14T07:43:24.962Z,0
2019-01-14T07:44:25.292Z,0
2019-01-14T07:45:25.276Z,0
2019-01-14T07:46:25.535Z,0
2019-01-14T07:47:25.306Z,0
2019-01-14T07:48:24.807Z,0
2019-01-14T07:49:25.097Z,0
2019-01-14T07:50:25.361Z,0
2019-01-14T07:51:25.375Z,0
2019-01-14T07:52:25.382Z,0
2019-01-14T07:53:25.394Z,0
2019-01-14T07:54:25.685Z,0
2019-01-14T07:55:25.699Z,0
2019-01-14T07:56:25.726Z,0
2019-01-14T07:57:26.923Z,0
2019-01-14T07:58:25.223Z,0
2019-01-14T07:59:25.759Z,0
2019-01-14T08:00:25.280Z,0
2019-01-14T08:01:25.550Z,0
2019-01-14T08:02:25.585Z,0
2019-01-14T08:03:27.131Z,0
2019-01-14T08:04:25.585Z,0
2019-01-14T08:05:25.090Z,0
2019-01-14T08:06:25.623Z,0
2019-01-14T08:07:25.644Z,0
2019-01-14T08:08:25.654Z,0
2019-01-14T08:09:25.163Z,0
2019-01-14T08:10:25.435Z,0
2019-01-14T08:11:25.194Z,0
2019-01-14T08:12:25.491Z,0
2019-01-14T08:13:25.485Z,0
2019-01-14T08:14:25.508Z,0
2019-01-14T08:15:25.797Z,0
2019-01-14T08:16:25.556Z,0
2019-01-14T08:17:25.287Z,0
2019-01-14T08:18:25.827Z,0
2019-01-14T08:19:26.097Z,0
2019-01-14T08:20:25.359Z,0
2019-01-14T08:21:25.892Z,0
2019-01-14T08:22:25.379Z,5
2019-01-14T08:23:25.924Z,5
2019-01-14T08:24:25.949Z,5
2019-01-14T08:25:26.465Z,10
2019-01-14T08:26:25.716Z,10
2019-01-14T08:27:25.994Z,10
2019-01-14T08:28:25.990Z,10
2019-01-14T08:29:26.030Z,10
2019-01-14T08:30:25.782Z,10
2019-01-14T08:31:25.788Z,10
2019-01-14T08:32:26.069Z,10
2019-01-14T08:33:25.853Z,10
2019-01-14T08:34:25.662Z,10
2019-01-14T08:35:26.395Z,10
2019-01-14T08:36:26.127Z,10
2019-01-14T08:37:26.167Z,10
2019-01-14T08:38:30.637Z,10
2019-01-14T08:39:25.946Z,10
2019-01-14T08:40:25.956Z,10
2019-01-14T08:41:25.968Z,10
2019-01-14T08:42:25.970Z,10
2019-01-14T08:43:25.743Z,10
2019-01-14T08:44:26.270Z,10
2019-01-14T08:45:26.573Z,10
2019-01-14T08:46:26.315Z,10
2019-01-14T08:47:26.598Z,10
2019-01-14T08:48:26.077Z,5
2019-01-14T08:49:26.104Z,5
2019-01-14T08:50:26.628Z,5
2019-01-14T08:51:26.119Z,5
2019-01-14T08:52:26.419Z,10
2019-01-14T08:53:26.167Z,5
2019-01-14T08:54:26.173Z,5
2019-01-14T08:55:26.730Z,5
2019-01-14T08:56:26.483Z,5
2019-01-14T08:57:26.498Z,5
2019-01-14T08:58:26.244Z,5
2019-01-14T08:59:26.774Z,5
2019-01-14T09:00:26.284Z,5
2019-01-14T09:01:26.824Z,5
2019-01-14T09:02:26.599Z,5
2019-01-14T09:03:26.065Z,5
2019-01-14T09:04:38.789Z,10
2019-01-14T09:05:26.900Z,5
2019-01-14T09:06:26.642Z,5
2019-01-14T09:07:26.922Z,5
2019-01-14T09:08:32.928Z,5
2019-01-14T09:09:26.698Z,10
2019-01-14T09:10:26.734Z,15
2019-01-14T09:11:26.752Z,10
2019-01-14T09:12:26.503Z,15
2019-01-14T09:13:27.023Z,15
2019-01-14T09:14:26.521Z,15
2019-01-14T09:15:26.532Z,15
2019-01-14T09:16:27.213Z,10
2019-01-14T09:17:26.846Z,10
2019-01-14T09:18:26.590Z,5
2019-01-14T09:19:27.135Z,10
2019-01-14T09:20:26.619Z,10
2019-01-14T09:21:26.656Z,10
2019-01-14T09:22:26.905Z,10
2019-01-14T09:23:26.402Z,10
2019-01-14T09:24:26.706Z,15
2019-01-14T09:25:27.224Z,15
2019-01-14T09:26:26.724Z,15
2019-01-14T09:27:27.003Z,15
2019-01-14T09:28:27.015Z,15
2019-01-14T09:29:27.026Z,10
2019-01-14T09:30:27.041Z,10
2019-01-14T09:31:26.551Z,10
2019-01-14T09:32:26.815Z,10
2019-01-14T09:33:27.609Z,10
2019-01-14T09:34:26.862Z,10
2019-01-14T09:35:26.625Z,10
2019-01-14T09:36:27.207Z,15
2019-01-14T09:37:27.500Z,15
2019-01-14T09:38:27.182Z,10
2019-01-14T09:39:26.957Z,10
2019-01-14T09:40:27.230Z,15
2019-01-14T09:41:26.998Z,15
2019-01-14T09:42:30.459Z,20
2019-01-14T09:43:26.755Z,20
2019-01-14T09:44:26.768Z,15
2019-01-14T09:45:27.061Z,15
2019-01-14T09:46:27.587Z,15
2019-01-14T09:47:27.597Z,15
2019-01-14T09:48:27.354Z,20
2019-01-14T09:49:27.114Z,20
2019-01-14T09:50:27.395Z,20
2019-01-14T09:51:27.156Z,25
2019-01-14T09:52:28.495Z,25
2019-01-14T09:53:27.449Z,20
2019-01-14T09:54:27.210Z,20
2019-01-14T09:55:27.477Z,15
2019-01-14T09:56:27.495Z,10
2019-01-14T09:57:27.244Z,10
2019-01-14T09:58:27.006Z,10
2019-01-14T09:59:27.580Z,5
2019-01-14T10:00:27.038Z,5
2019-01-14T10:01:27.311Z,5
2019-01-14T10:02:27.343Z,5
2019-01-14T10:03:27.372Z,10
2019-01-14T10:04:27.643Z,5
2019-01-14T10:05:27.668Z,5
2019-01-14T10:06:27.674Z,5
2019-01-14T10:07:28.198Z,10
2019-01-14T10:08:27.733Z,10
2019-01-14T10:09:27.510Z,10
2019-01-14T10:10:27.992Z,20
2019-01-14T10:11:27.227Z,25
2019-01-14T10:12:28.026Z,15
2019-01-14T10:13:28.294Z,10
2019-01-14T10:14:27.286Z,5
2019-01-14T10:15:28.035Z,10
2019-01-14T10:16:27.847Z,10
2019-01-14T10:17:27.599Z,15
2019-01-14T10:18:28.197Z,20
2019-01-14T10:19:28.165Z,20
2019-01-14T10:20:28.406Z,15
2019-01-14T10:21:27.716Z,20
2019-01-14T10:22:28.329Z,25
2019-01-14T10:23:27.972Z,20
2019-01-14T10:24:27.460Z,20
2019-01-14T10:25:27.473Z,20
2019-01-14T10:26:28.274Z,25
2019-01-14T10:27:28.032Z,15
2019-01-14T10:28:27.510Z,10
2019-01-14T10:29:28.043Z,15
2019-01-14T10:30:27.811Z,15
2019-01-14T10:31:28.957Z,10
2019-01-14T10:32:28.116Z,10
2019-01-14T10:33:27.881Z,10
2019-01-14T10:34:28.145Z,15
2019-01-14T10:35:27.895Z,25
2019-01-14T10:36:28.476Z,25
2019-01-14T10:37:31.969Z,25
2019-01-14T10:38:27.954Z,30
2019-01-14T10:39:28.213Z,30
2019-01-14T10:40:28.248Z,25
2019-01-14T10:41:28.043Z,20
2019-01-14T10:42:28.536Z,20
2019-01-14T10:43:28.346Z,20
2019-01-14T10:44:28.317Z,25
2019-01-14T10:45:28.323Z,20
2019-01-14T10:46:28.076Z,20
2019-01-14T10:47:28.097Z,20
2019-01-14T10:48:27.869Z,20
2019-01-14T10:49:28.134Z,20
2019-01-14T10:50:28.399Z,25
2019-01-14T10:51:27.927Z,25
2019-01-14T10:52:27.931Z,25
2019-01-14T10:53:28.211Z,25
2019-01-14T10:54:28.762Z,25
2019-01-14T10:55:27.988Z,20
2019-01-14T10:56:28.299Z,20
2019-01-14T10:57:29.130Z,30
2019-01-14T10:58:28.540Z,35
2019-01-14T10:59:28.570Z,25
2019-01-14T11:00:28.337Z,25
2019-01-14T11:01:28.334Z,20
2019-01-14T11:02:28.371Z,30
2019-01-14T11:03:28.121Z,25
2019-01-14T11:04:28.147Z,25
2019-01-14T11:05:28.689Z,25
2019-01-14T11:06:28.958Z,30
2019-01-14T11:07:28.703Z,25
2019-01-14T11:08:28.709Z,25
2019-01-14T11:09:28.998Z,25
2019-01-14T11:10:28.514Z,25
2019-01-14T11:11:28.771Z,25
2019-01-14T11:12:29.052Z,25
2019-01-14T11:13:28.809Z,25
2019-01-14T11:14:28.306Z,20
2019-01-14T11:15:28.589Z,20
2019-01-14T11:16:29.127Z,20
2019-01-14T11:17:28.866Z,20
2019-01-14T11:18:29.164Z,20
2019-01-14T11:19:28.913Z,20
2019-01-14T11:20:28.936Z,25
2019-01-14T11:21:28.688Z,25
2019-01-14T11:22:28.985Z,30
2019-01-14T11:23:28.998Z,25
2019-01-14T11:24:29.259Z,20
2019-01-14T11:25:28.746Z,20
2019-01-14T11:26:29.538Z,20
2019-01-14T11:27:29.318Z,20
2019-01-14T11:28:29.059Z,20
2019-01-14T11:29:29.351Z,25
2019-01-14T11:30:28.846Z,30
2019-01-14T11:31:29.390Z,20
2019-01-14T11:32:28.625Z,15
2019-01-14T11:33:29.456Z,15
2019-01-14T11:34:29.230Z,15
2019-01-14T11:35:29.195Z,10
2019-01-14T11:36:29.203Z,15
2019-01-14T11:37:29.213Z,25
2019-01-14T11:38:28.970Z,25
2019-01-14T11:39:29.269Z,20
2019-01-14T11:40:29.282Z,15
2019-01-14T11:41:29.029Z,10
2019-01-14T11:42:29.590Z,10
2019-01-14T11:43:29.067Z,10
2019-01-14T11:44:29.859Z,10
2019-01-14T11:45:29.622Z,20
2019-01-14T11:46:29.639Z,25
2019-01-14T11:47:29.398Z,25
2019-01-14T11:48:29.450Z,15
2019-01-14T11:49:29.429Z,10
2019-01-14T11:50:29.192Z,10
2019-01-14T11:51:29.451Z,10
2019-01-14T11:52:29.491Z,15
2019-01-14T11:53:29.520Z,15
2019-01-14T11:54:29.536Z,5
2019-01-14T11:55:29.301Z,10
2019-01-14T11:56:29.566Z,20
2019-01-14T11:57:29.057Z,20
2019-01-14T11:58:29.599Z,20
2019-01-14T11:59:29.609Z,15
2019-01-14T12:00:36.219Z,15
2019-01-14T12:01:29.637Z,15
2019-01-14T12:02:29.763Z,15
2019-01-14T12:03:29.418Z,15
2019-01-14T12:04:29.702Z,15
2019-01-14T12:05:29.720Z,15
2019-01-14T12:06:29.462Z,20
2019-01-14T12:07:29.240Z,15
2019-01-14T12:08:30.084Z,15
2019-01-14T12:09:29.249Z,10
2019-01-14T12:10:29.857Z,15
2019-01-14T12:11:29.559Z,15
2019-01-14T12:12:30.357Z,15
2019-01-14T12:13:29.865Z,10
2019-01-14T12:14:30.128Z,10
2019-01-14T12:15:30.145Z,15
2019-01-14T12:16:29.639Z,25
2019-01-14T12:17:29.975Z,25
2019-01-14T12:18:29.698Z,20
2019-01-14T12:19:29.756Z,15
2019-01-14T12:20:30.025Z,15
2019-01-14T12:21:29.999Z,10
2019-01-14T12:22:30.065Z,10
2019-01-14T12:23:30.026Z,10
2019-01-14T12:24:29.793Z,10
2019-01-14T12:25:30.091Z,5
2019-01-14T12:26:30.073Z,5
2019-01-14T12:27:30.085Z,5
2019-01-14T12:28:30.122Z,5
2019-01-14T12:29:30.127Z,5
2019-01-14T12:30:29.899Z,5
2019-01-14T12:31:29.891Z,5
2019-01-14T12:32:29.908Z,5
2019-01-14T12:33:29.952Z,5
2019-01-14T12:34:30.207Z,5
2019-01-14T12:35:29.965Z,0
2019-01-14T12:36:29.987Z,5
2019-01-14T12:37:30.262Z,5
2019-01-14T12:38:30.299Z,5
2019-01-14T12:39:30.305Z,10
2019-01-14T12:40:31.716Z,10
2019-01-14T12:41:30.330Z,15
2019-01-14T12:42:30.670Z,15
2019-01-14T12:43:30.628Z,15
2019-01-14T12:44:30.136Z,15
2019-01-14T12:45:29.897Z,15
2019-01-14T12:46:30.169Z,15
2019-01-14T12:47:30.184Z,15
2019-01-14T12:48:31.817Z,15
2019-01-14T12:49:30.235Z,15
2019-01-14T12:50:30.236Z,15
2019-01-14T12:51:30.241Z,15
2019-01-14T12:52:30.512Z,20
2019-01-14T12:53:30.831Z,20
2019-01-14T12:54:30.310Z,25
2019-01-14T12:55:30.316Z,30
2019-01-14T12:56:30.331Z,30
2019-01-14T12:57:30.603Z,25
2019-01-14T12:58:30.414Z,25
2019-01-14T12:59:30.391Z,25
2019-01-14T13:00:30.401Z,20
2019-01-14T13:01:30.841Z,20
2019-01-14T13:02:30.691Z,15
2019-01-14T13:03:31.232Z,25
2019-01-14T13:04:30.736Z,35
2019-01-14T13:05:30.749Z,25
2019-01-14T13:06:30.498Z,20
2019-01-14T13:07:31.057Z,25
2019-01-14T13:08:30.609Z,40
2019-01-14T13:09:35.686Z,40
2019-01-14T13:10:30.306Z,25
2019-01-14T13:11:32.729Z,25
2019-01-14T13:12:30.604Z,25
2019-01-14T13:13:30.630Z,25
2019-01-14T13:14:30.896Z,25
2019-01-14T13:15:30.944Z,20
2019-01-14T13:16:30.940Z,25
2019-01-14T13:17:31.217Z,25
2019-01-14T13:18:30.963Z,25
2019-01-14T13:19:30.993Z,25
2019-01-14T13:20:31.010Z,20
2019-01-14T13:21:31.023Z,15
2019-01-14T13:22:31.291Z,10
2019-01-14T13:23:34.772Z,5
2019-01-14T13:24:30.826Z,5
2019-01-14T13:25:30.832Z,5
2019-01-14T13:26:31.370Z,5
2019-01-14T13:27:30.870Z,10
2019-01-14T13:28:31.158Z,10
2019-01-14T13:29:31.174Z,10
2019-01-14T13:30:31.173Z,15
2019-01-14T13:31:30.901Z,20
2019-01-14T13:32:31.221Z,20
2019-01-14T13:33:30.972Z,20
2019-01-14T13:34:31.001Z,20
2019-01-14T13:35:31.344Z,15
2019-01-14T13:36:31.277Z,15
2019-01-14T13:37:30.782Z,15
2019-01-14T13:38:31.637Z,15
2019-01-14T13:39:38.725Z,15
2019-01-14T13:40:31.617Z,15
2019-01-14T13:41:31.107Z,15
2019-01-14T13:42:31.417Z,15
2019-01-14T13:43:31.128Z,15
2019-01-14T13:44:31.415Z,15
2019-01-14T13:45:31.169Z,15
2019-01-14T13:46:35.129Z,15
2019-01-14T13:47:30.949Z,15
2019-01-14T13:48:31.481Z,15
2019-01-14T13:49:32.031Z,15
2019-01-14T13:50:31.013Z,15
2019-01-14T13:51:31.550Z,15
2019-01-14T13:52:32.679Z,15
2019-01-14T13:53:31.303Z,20
2019-01-14T13:54:31.860Z,20
2019-01-14T13:55:31.353Z,20
2019-01-14T13:56:31.642Z,15
2019-01-14T13:57:31.379Z,15
2019-01-14T13:58:31.970Z,15
2019-01-14T13:59:31.706Z,15
2019-01-14T14:00:31.700Z,15
2019-01-14T14:01:31.714Z,15
2019-01-14T14:02:31.464Z,20
2019-01-14T14:03:31.766Z,15
2019-01-14T14:04:31.497Z,15
2019-01-14T14:05:31.529Z,15
2019-01-14T14:06:31.815Z,15
2019-01-14T14:07:32.316Z,20
2019-01-14T14:08:31.824Z,15
2019-01-14T14:09:31.595Z,20
2019-01-14T14:10:31.863Z,15
2019-01-14T14:11:32.140Z,15
2019-01-14T14:12:31.628Z,15
2019-01-14T14:13:31.912Z,15
2019-01-14T14:14:32.450Z,15
2019-01-14T14:15:31.423Z,15
2019-01-14T14:16:31.967Z,15
2019-01-14T14:17:31.480Z,15
2019-01-14T14:18:32.278Z,15
2019-01-14T14:19:31.764Z,15
2019-01-14T14:20:32.044Z,15
2019-01-14T14:21:32.317Z,15
2019-01-14T14:22:32.069Z,10
2019-01-14T14:23:33.426Z,15
2019-01-14T14:24:31.643Z,15
2019-01-14T14:25:32.380Z,10
2019-01-14T14:26:31.877Z,10
2019-01-14T14:27:32.406Z,10
2019-01-14T14:28:31.911Z,5
2019-01-14T14:29:32.177Z,5
2019-01-14T14:30:32.226Z,0
2019-01-14T14:31:32.495Z,0
2019-01-14T14:32:31.994Z,0
2019-01-14T14:33:32.260Z,5
2019-01-14T14:34:32.337Z,10
2019-01-14T14:35:32.810Z,10